sensor_id;sensor_type;location;lat;lon;timestamp;P1;durP1;ratioP1;P2;durP2;ratioP2
63534;SDS011;55128;50.230;18.944;2022-08-04T03:03:39;16.67;;;15.23;;
63534;SDS011;55128;50.230;18.944;2022-08-04T03:44:00;16.88;;;15.18;;
63534;SDS011;55128;50.230;18.944;2022-08-04T04:07:42;18.13;;;16.33;;
63534;SDS011;55128;50.230;18.944;2022-08-04T04:26:03;18.08;;;16.55;;
63534;SDS011;55128;50.230;18.944;2022-08-04T05:31:24;12.20;;;11.10;;
63534;SDS011;55128;50.230;18.944;2022-08-04T05:41:59;12.67;;;10.17;;
63534;SDS011;55128;50.230;18.944;2022-08-04T05:47:07;9.63;;;8.63;;
63534;SDS011;55128;50.230;18.944;2022-08-04T05:52:16;8.38;;;7.63;;
63534;SDS011;55128;50.230;18.944;2022-08-04T05:57:27;8.18;;;7.47;;
63534;SDS011;55128;50.230;18.944;2022-08-04T06:02:51;8.73;;;7.45;;
63534;SDS011;55128;50.230;18.944;2022-08-04T06:08:15;8.85;;;7.30;;
63534;SDS011;55128;50.230;18.944;2022-08-04T06:13:19;7.82;;;6.60;;
63534;SDS011;55128;50.230;18.944;2022-08-04T16:09:53;3.95;;;3.65;;
63534;SDS011;55128;50.230;18.944;2022-08-04T16:16:16;5.95;;;3.55;;
63534;SDS011;55128;50.230;18.944;2022-08-04T16:21:31;4.00;;;3.60;;
63534;SDS011;55128;50.230;18.944;2022-08-04T16:31:40;5.18;;;3.60;;
63534;SDS011;55128;50.230;18.944;2022-08-04T16:37:02;4.75;;;3.78;;
63534;SDS011;55128;50.230;18.944;2022-08-04T16:48:00;6.65;;;3.78;;
63534;SDS011;55128;50.230;18.944;2022-08-04T16:52:53;5.70;;;3.83;;
63534;SDS011;55128;50.230;18.944;2022-08-04T16:57:56;6.15;;;4.28;;
63534;SDS011;55128;50.230;18.944;2022-08-04T17:03:01;5.53;;;3.78;;
63534;SDS011;55128;50.230;18.944;2022-08-04T17:08:06;4.45;;;3.50;;
63534;SDS011;55128;50.230;18.944;2022-08-04T17:13:33;4.22;;;3.85;;
63534;SDS011;55128;50.230;18.944;2022-08-04T17:19:01;4.25;;;3.67;;
63534;SDS011;55128;50.230;18.944;2022-08-04T17:24:08;5.18;;;4.03;;
63534;SDS011;55128;50.230;18.944;2022-08-04T17:29:09;5.25;;;3.88;;
63534;SDS011;55128;50.230;18.944;2022-08-04T17:34:13;6.05;;;4.15;;
63534;SDS011;55128;50.230;18.944;2022-08-04T17:39:17;4.88;;;4.20;;
63534;SDS011;55128;50.230;18.944;2022-08-04T17:44:19;5.03;;;4.03;;
63534;SDS011;55128;50.230;18.944;2022-08-04T17:49:20;4.40;;;4.00;;
63534;SDS011;55128;50.230;18.944;2022-08-04T17:54:34;5.45;;;3.80;;
63534;SDS011;55128;50.230;18.944;2022-08-04T18:14:58;5.78;;;3.72;;
63534;SDS011;55128;50.230;18.944;2022-08-04T18:20:00;4.18;;;3.75;;
63534;SDS011;55128;50.230;18.944;2022-08-04T18:25:03;5.35;;;3.72;;
63534;SDS011;55128;50.230;18.944;2022-08-04T18:30:06;4.60;;;3.85;;
63534;SDS011;55128;50.230;18.944;2022-08-04T18:35:08;6.75;;;3.80;;
63534;SDS011;55128;50.230;18.944;2022-08-04T18:40:09;4.05;;;3.65;;
63534;SDS011;55128;50.230;18.944;2022-08-04T18:45:12;6.03;;;4.30;;
63534;SDS011;55128;50.230;18.944;2022-08-04T18:50:13;6.28;;;4.60;;
63534;SDS011;55128;50.230;18.944;2022-08-04T18:55:13;5.47;;;4.97;;
63534;SDS011;55128;50.230;18.944;2022-08-04T19:00:14;11.27;;;5.82;;
63534;SDS011;55128;50.230;18.944;2022-08-04T19:05:15;7.47;;;4.80;;
63534;SDS011;55128;50.230;18.944;2022-08-04T19:10:15;5.40;;;4.40;;
63534;SDS011;55128;50.230;18.944;2022-08-04T19:15:16;7.80;;;5.55;;
63534;SDS011;55128;50.230;18.944;2022-08-04T19:20:17;10.05;;;5.90;;
63534;SDS011;55128;50.230;18.944;2022-08-04T19:25:18;6.03;;;4.65;;
63534;SDS011;55128;50.230;18.944;2022-08-04T19:30:19;9.38;;;5.20;;
63534;SDS011;55128;50.230;18.944;2022-08-04T19:35:20;5.28;;;4.75;;
63534;SDS011;55128;50.230;18.944;2022-08-04T19:40:20;7.40;;;4.65;;
63534;SDS011;55128;50.230;18.944;2022-08-04T19:45:23;5.57;;;4.88;;
63534;SDS011;55128;50.230;18.944;2022-08-04T19:50:24;5.63;;;4.50;;
63534;SDS011;55128;50.230;18.944;2022-08-04T20:00:28;6.53;;;5.07;;
63534;SDS011;55128;50.230;18.944;2022-08-04T20:05:29;7.30;;;4.78;;
63534;SDS011;55128;50.230;18.944;2022-08-04T20:10:31;7.13;;;5.05;;
63534;SDS011;55128;50.230;18.944;2022-08-04T20:15:31;6.97;;;5.25;;
63534;SDS011;55128;50.230;18.944;2022-08-04T20:20:40;7.97;;;5.45;;
63534;SDS011;55128;50.230;18.944;2022-08-04T20:25:46;5.88;;;5.30;;
63534;SDS011;55128;50.230;18.944;2022-08-04T20:30:52;8.18;;;5.40;;
63534;SDS011;55128;50.230;18.944;2022-08-04T20:36:03;7.43;;;5.45;;
63534;SDS011;55128;50.230;18.944;2022-08-04T20:41:03;7.70;;;6.25;;
63534;SDS011;55128;50.230;18.944;2022-08-04T20:46:06;7.28;;;5.80;;
63534;SDS011;55128;50.230;18.944;2022-08-04T20:51:28;7.25;;;5.95;;
63534;SDS011;55128;50.230;18.944;2022-08-04T20:56:30;7.13;;;6.25;;
63534;SDS011;55128;50.230;18.944;2022-08-04T21:01:30;7.13;;;6.40;;
63534;SDS011;55128;50.230;18.944;2022-08-04T21:06:32;6.95;;;6.25;;
63534;SDS011;55128;50.230;18.944;2022-08-04T21:11:34;6.93;;;6.20;;
63534;SDS011;55128;50.230;18.944;2022-08-04T21:16:35;7.90;;;5.68;;
63534;SDS011;55128;50.230;18.944;2022-08-04T21:21:35;6.78;;;6.07;;
63534;SDS011;55128;50.230;18.944;2022-08-04T21:26:36;7.70;;;6.13;;
63534;SDS011;55128;50.230;18.944;2022-08-04T21:31:37;8.93;;;5.82;;
63534;SDS011;55128;50.230;18.944;2022-08-04T21:36:37;8.80;;;5.65;;
63534;SDS011;55128;50.230;18.944;2022-08-04T21:41:39;7.28;;;6.28;;
63534;SDS011;55128;50.230;18.944;2022-08-04T21:46:39;8.45;;;6.65;;
63534;SDS011;55128;50.230;18.944;2022-08-04T21:51:40;7.85;;;7.10;;
63534;SDS011;55128;50.230;18.944;2022-08-04T21:56:44;12.65;;;9.32;;
63534;SDS011;55128;50.230;18.944;2022-08-04T22:01:45;12.35;;;10.05;;
63534;SDS011;55128;50.230;18.944;2022-08-04T22:06:46;12.18;;;10.88;;
63534;SDS011;55128;50.230;18.944;2022-08-04T22:11:49;14.00;;;8.85;;
63534;SDS011;55128;50.230;18.944;2022-08-04T22:16:50;11.25;;;7.43;;
63534;SDS011;55128;50.230;18.944;2022-08-04T22:21:55;12.73;;;6.68;;
63534;SDS011;55128;50.230;18.944;2022-08-04T22:27:10;9.80;;;6.60;;
63534;SDS011;55128;50.230;18.944;2022-08-04T22:32:34;11.32;;;6.68;;
63534;SDS011;55128;50.230;18.944;2022-08-04T22:37:37;8.47;;;6.53;;
63534;SDS011;55128;50.230;18.944;2022-08-04T22:42:42;10.52;;;6.70;;
63534;SDS011;55128;50.230;18.944;2022-08-04T22:47:44;9.35;;;6.78;;
63534;SDS011;55128;50.230;18.944;2022-08-04T22:52:44;8.18;;;6.32;;
63534;SDS011;55128;50.230;18.944;2022-08-04T22:57:45;8.35;;;7.25;;
63534;SDS011;55128;50.230;18.944;2022-08-04T23:02:48;8.33;;;6.80;;
63534;SDS011;55128;50.230;18.944;2022-08-04T23:07:50;9.13;;;6.82;;
63534;SDS011;55128;50.230;18.944;2022-08-04T23:12:51;8.88;;;6.57;;
63534;SDS011;55128;50.230;18.944;2022-08-04T23:17:51;7.78;;;6.97;;
63534;SDS011;55128;50.230;18.944;2022-08-04T23:22:52;7.35;;;6.60;;
63534;SDS011;55128;50.230;18.944;2022-08-04T23:27:54;8.82;;;7.45;;
63534;SDS011;55128;50.230;18.944;2022-08-04T23:32:54;8.20;;;6.88;;
63534;SDS011;55128;50.230;18.944;2022-08-04T23:38:00;7.88;;;7.07;;
63534;SDS011;55128;50.230;18.944;2022-08-04T23:43:24;8.57;;;6.78;;
63534;SDS011;55128;50.230;18.944;2022-08-04T23:48:34;9.60;;;7.32;;
63534;SDS011;55128;50.230;18.944;2022-08-04T23:53:43;9.65;;;7.38;;
63534;SDS011;55128;50.230;18.944;2022-08-04T23:58:49;8.80;;;6.97;;
